Time;durP1;ratioP1;P1;durP2;ratioP2;P2;SDS_P1;SDS_P2;PMS_P1;PMS_P2;Temp;Humidity;BMP_temperature;BMP_pressure;BME280_temperature;BME280_humidity;BME280_pressure;Samples;Min_cycle;Max_cycle;Signal;HPM_P1;HPM_P2
2021/09/07 00:00:14;;;;;;;12.68;7.63;;;;;;;;;;5076165;28;20052;-82
2021/09/07 00:02:40;;;;;;;11.55;8.52;;;;;;;;;;5075800;28;20024;-81
2021/09/07 00:05:07;;;;;;;14.23;7.93;;;;;;;;;;5080685;28;20029;-82
2021/09/07 00:07:33;;;;;;;12.23;8.23;;;;;;;;;;5080752;28;20028;-81
2021/09/07 00:09:59;;;;;;;12.68;8.43;;;;;;;;;;5062654;28;20041;-82
2021/09/07 00:12:25;;;;;;;12.80;8.55;;;;;;;;;;5080386;28;20028;-81
2021/09/07 00:14:51;;;;;;;10.30;7.25;;;;;;;;;;5063420;28;20025;-82
2021/09/07 00:17:17;;;;;;;11.65;8.10;;;;;;;;;;5079505;28;20020;-82
2021/09/07 00:19:43;;;;;;;11.73;7.28;;;;;;;;;;5079428;28;20024;-82
2021/09/07 00:22:09;;;;;;;11.75;7.78;;;;;;;;;;5079917;28;20024;-82
2021/09/07 00:24:35;;;;;;;10.35;7.82;;;;;;;;;;5080780;28;20048;-82
2021/09/07 00:27:01;;;;;;;9.98;7.90;;;;;;;;;;5077858;28;20037;-82
2021/09/07 00:29:27;;;;;;;10.50;8.38;;;;;;;;;;5064260;28;20148;-82
2021/09/07 00:31:54;;;;;;;10.50;8.35;;;;;;;;;;5081444;28;20021;-82
2021/09/07 00:34:20;;;;;;;10.23;7.88;;;;;;;;;;5080350;28;20050;-83
2021/09/07 00:36:46;;;;;;;9.73;8.38;;;;;;;;;;5084799;28;20032;-81
2021/09/07 00:39:12;;;;;;;10.80;8.10;;;;;;;;;;5092662;28;20062;-81
2021/09/07 00:41:39;;;;;;;13.40;8.07;;;;;;;;;;5092891;28;20096;-81
2021/09/07 00:44:25;;;;;;;11.35;8.25;;;;;;;;;;5087780;28;20024;-82
2021/09/07 00:46:52;;;;;;;9.73;8.32;;;;;;;;;;5078294;28;20218;-82
2021/09/07 00:49:18;;;;;;;12.95;8.52;;;;;;;;;;5078361;28;20029;-82
2021/09/07 00:51:46;;;;;;;12.65;8.38;;;;;;;;;;5080111;28;20028;-82
2021/09/07 00:54:12;;;;;;;10.93;7.97;;;;;;;;;;5079923;28;20062;-82
2021/09/07 00:56:40;;;;;;;12.25;8.70;;;;;;;;;;5078205;28;20031;-82
2021/09/07 00:59:07;;;;;;;10.10;7.97;;;;;;;;;;5094755;28;20094;-81
2021/09/07 01:01:33;;;;;;;12.57;8.40;;;;;;;;;;5078392;28;20032;-82
2021/09/07 01:03:59;;;;;;;11.68;8.15;;;;;;;;;;5061951;28;20044;-82
2021/09/07 01:06:25;;;;;;;10.55;8.18;;;;;;;;;;5062026;28;20369;-82
2021/09/07 01:08:51;;;;;;;16.20;8.68;;;;;;;;;;5078145;28;20028;-82
2021/09/07 01:11:18;;;;;;;10.32;7.28;;;;;;;;;;5079331;28;20023;-82
2021/09/07 01:13:45;;;;;;;13.73;8.23;;;;;;;;;;5061718;28;20029;-82
2021/09/07 01:16:11;;;;;;;14.02;8.00;;;;;;;;;;5060157;28;20058;-82
2021/09/07 01:18:37;;;;;;;11.00;7.80;;;;;;;;;;5078040;28;20056;-82
2021/09/07 01:21:09;;;;;;;10.77;8.35;;;;;;;;;;5061093;28;20052;-81
2021/09/07 01:23:35;;;;;;;12.63;8.57;;;;;;;;;;5080144;28;20021;-82
2021/09/07 01:26:01;;;;;;;11.93;8.82;;;;;;;;;;5078679;28;20058;-82
2021/09/07 01:28:29;;;;;;;13.10;8.43;;;;;;;;;;5078498;28;20096;-82
2021/09/07 01:30:55;;;;;;;15.20;8.10;;;;;;;;;;5078643;28;20023;-81
2021/09/07 01:33:21;;;;;;;10.80;7.97;;;;;;;;;;5078234;28;20051;-82
2021/09/07 01:35:47;;;;;;;10.43;8.18;;;;;;;;;;5078963;28;20032;-82
2021/09/07 01:38:13;;;;;;;11.15;8.00;;;;;;;;;;5077995;28;20028;-82
2021/09/07 01:40:40;;;;;;;10.93;8.68;;;;;;;;;;5060475;28;20481;-82
2021/09/07 01:43:13;;;;;;;11.27;8.65;;;;;;;;;;5077517;28;20025;-82
2021/09/07 01:45:39;;;;;;;10.68;8.60;;;;;;;;;;5077577;28;20049;-82
2021/09/07 01:48:05;;;;;;;11.65;8.40;;;;;;;;;;5077594;28;20128;-81
2021/09/07 01:50:31;;;;;;;10.98;8.90;;;;;;;;;;5060500;28;20091;-82
2021/09/07 01:52:57;;;;;;;18.38;8.32;;;;;;;;;;5077659;28;20085;-81
2021/09/07 01:55:23;;;;;;;11.93;8.77;;;;;;;;;;5077760;28;20443;-82
2021/09/07 01:57:50;;;;;;;10.93;8.52;;;;;;;;;;5078392;28;20078;-82
2021/09/07 02:00:16;;;;;;;13.00;9.27;;;;;;;;;;5061826;28;20032;-82
2021/09/07 02:02:42;;;;;;;16.38;8.75;;;;;;;;;;5077565;28;20025;-81
2021/09/07 02:05:08;;;;;;;16.35;8.63;;;;;;;;;;5060972;28;20033;-82
2021/09/07 02:07:34;;;;;;;11.70;8.45;;;;;;;;;;5061630;28;20043;-82
2021/09/07 02:10:00;;;;;;;14.10;7.88;;;;;;;;;;5077367;28;20032;-81
2021/09/07 02:12:26;;;;;;;13.95;8.68;;;;;;;;;;5078997;28;20031;-82
2021/09/07 02:14:53;;;;;;;13.63;8.15;;;;;;;;;;5069488;28;20039;-81
2021/09/07 02:17:19;;;;;;;11.38;8.73;;;;;;;;;;5063119;28;20078;-82
2021/09/07 02:19:45;;;;;;;10.77;8.60;;;;;;;;;;5074984;28;20044;-81
2021/09/07 02:22:11;;;;;;;11.35;8.30;;;;;;;;;;5069673;28;20041;-82
2021/09/07 02:24:38;;;;;;;13.90;9.27;;;;;;;;;;5060188;28;20051;-82
2021/09/07 02:27:04;;;;;;;11.05;9.15;;;;;;;;;;5076561;28;20017;-82
2021/09/07 02:29:30;;;;;;;10.68;8.48;;;;;;;;;;5076630;28;20033;-82
2021/09/07 02:31:56;;;;;;;11.77;9.32;;;;;;;;;;5076682;28;20493;-82
2021/09/07 02:34:22;;;;;;;14.77;9.30;;;;;;;;;;5076407;28;20025;-82
2021/09/07 02:36:48;;;;;;;11.20;9.52;;;;;;;;;;5076812;28;20070;-82
2021/09/07 02:39:14;;;;;;;13.93;9.05;;;;;;;;;;5059656;28;20076;-82
2021/09/07 02:41:40;;;;;;;12.52;9.02;;;;;;;;;;5060331;28;20377;-82
2021/09/07 02:44:06;;;;;;;14.60;9.23;;;;;;;;;;5078116;28;20672;-82
2021/09/07 02:46:32;;;;;;;13.63;9.10;;;;;;;;;;5076604;28;20021;-82
2021/09/07 02:48:58;;;;;;;13.48;9.13;;;;;;;;;;5076339;28;20028;-82
2021/09/07 02:51:24;;;;;;;11.90;9.40;;;;;;;;;;5082143;28;20040;-83
2021/09/07 02:53:50;;;;;;;13.07;9.48;;;;;;;;;;5076759;28;20036;-82
2021/09/07 02:56:16;;;;;;;17.45;9.63;;;;;;;;;;5059599;28;20033;-82
2021/09/07 02:58:42;;;;;;;14.57;9.30;;;;;;;;;;5060730;28;20079;-82
2021/09/07 03:01:08;;;;;;;11.50;9.25;;;;;;;;;;5039662;28;20105;-82
2021/09/07 03:03:36;;;;;;;12.05;9.45;;;;;;;;;;5057419;28;20029;-82
2021/09/07 03:06:02;;;;;;;13.50;10.20;;;;;;;;;;5040488;28;20123;-82
2021/09/07 03:08:28;;;;;;;11.73;9.10;;;;;;;;;;5056773;28;20072;-82
2021/09/07 03:10:54;;;;;;;12.32;9.80;;;;;;;;;;5040501;28;20021;-82
2021/09/07 03:13:20;;;;;;;12.95;9.32;;;;;;;;;;5056649;28;20112;-82
2021/09/07 03:15:47;;;;;;;13.65;9.63;;;;;;;;;;5056034;28;20049;-82
2021/09/07 03:18:13;;;;;;;14.75;10.43;;;;;;;;;;5056646;28;20029;-82
2021/09/07 03:20:39;;;;;;;16.02;9.75;;;;;;;;;;5057704;28;20040;-82
2021/09/07 03:23:05;;;;;;;13.50;10.02;;;;;;;;;;5069256;28;20108;-82
2021/09/07 03:25:31;;;;;;;12.02;9.10;;;;;;;;;;5077562;28;20092;-82
2021/09/07 03:27:58;;;;;;;10.40;8.73;;;;;;;;;;5078240;28;20021;-82
2021/09/07 03:30:24;;;;;;;12.82;9.68;;;;;;;;;;5077618;28;20509;-81
2021/09/07 03:32:50;;;;;;;14.80;9.60;;;;;;;;;;5076906;28;20029;-82
2021/09/07 03:35:16;;;;;;;14.70;9.57;;;;;;;;;;5075962;28;20131;-81
2021/09/07 03:37:43;;;;;;;15.02;10.10;;;;;;;;;;5077738;28;20098;-82
2021/09/07 03:40:09;;;;;;;14.30;9.85;;;;;;;;;;5079814;28;20115;-82
2021/09/07 03:42:36;;;;;;;16.48;9.60;;;;;;;;;;5081386;28;20109;-82
2021/09/07 03:45:03;;;;;;;15.02;10.18;;;;;;;;;;5064002;28;20101;-82
2021/09/07 03:47:29;;;;;;;17.08;9.95;;;;;;;;;;5081164;28;20115;-82
2021/09/07 03:49:55;;;;;;;14.52;9.63;;;;;;;;;;5080126;28;20029;-82
2021/09/07 03:52:21;;;;;;;17.17;10.23;;;;;;;;;;5081506;28;20477;-82
2021/09/07 03:54:47;;;;;;;15.50;9.57;;;;;;;;;;5080394;28;20025;-82
2021/09/07 03:57:13;;;;;;;14.40;9.65;;;;;;;;;;5081511;28;20582;-82
2021/09/07 03:59:39;;;;;;;17.50;10.38;;;;;;;;;;5063497;28;20024;-82
2021/09/07 04:02:05;;;;;;;17.75;10.32;;;;;;;;;;5080138;28;20047;-81
2021/09/07 04:04:31;;;;;;;16.65;10.10;;;;;;;;;;5082176;28;20028;-82
2021/09/07 04:06:57;;;;;;;14.27;10.23;;;;;;;;;;5081250;28;20037;-82
2021/09/07 04:09:23;;;;;;;14.40;10.63;;;;;;;;;;5064341;28;20513;-82
2021/09/07 04:11:50;;;;;;;13.30;10.07;;;;;;;;;;5080440;28;20028;-81
2021/09/07 04:14:16;;;;;;;12.35;9.60;;;;;;;;;;5079660;28;20020;-82
2021/09/07 04:16:42;;;;;;;14.50;10.13;;;;;;;;;;5080830;28;20031;-82
2021/09/07 04:19:08;;;;;;;13.00;9.65;;;;;;;;;;5079463;28;20128;-82
2021/09/07 04:21:34;;;;;;;13.18;9.90;;;;;;;;;;5080063;28;20490;-82
2021/09/07 04:24:00;;;;;;;12.68;9.68;;;;;;;;;;5080663;28;20029;-82
2021/09/07 04:26:26;;;;;;;15.63;10.05;;;;;;;;;;5063313;28;20044;-83
2021/09/07 04:28:52;;;;;;;16.15;11.02;;;;;;;;;;5080444;28;20497;-82
2021/09/07 04:31:18;;;;;;;12.13;10.15;;;;;;;;;;5080179;28;20028;-82
2021/09/07 04:33:45;;;;;;;15.43;10.60;;;;;;;;;;5080264;28;20066;-82
2021/09/07 04:36:11;;;;;;;14.75;10.05;;;;;;;;;;5079590;28;20035;-83
2021/09/07 04:38:37;;;;;;;12.95;10.55;;;;;;;;;;5063389;28;20406;-82
2021/09/07 04:41:03;;;;;;;14.50;11.30;;;;;;;;;;5082884;28;20401;-82
2021/09/07 04:43:29;;;;;;;13.43;10.75;;;;;;;;;;5088177;28;20028;-82
2021/09/07 04:45:55;;;;;;;13.55;10.90;;;;;;;;;;5085850;28;20040;-82
2021/09/07 04:48:21;;;;;;;16.55;11.57;;;;;;;;;;5079147;28;20040;-82
2021/09/07 04:50:47;;;;;;;15.00;11.13;;;;;;;;;;5061551;28;20070;-82
2021/09/07 04:53:13;;;;;;;15.95;10.82;;;;;;;;;;5062786;28;20048;-82
2021/09/07 04:55:39;;;;;;;12.98;10.85;;;;;;;;;;5080562;28;20441;-82
2021/09/07 04:58:05;;;;;;;15.13;10.27;;;;;;;;;;5077957;28;20047;-83
2021/09/07 05:00:31;;;;;;;14.18;11.50;;;;;;;;;;5078042;28;20059;-83
2021/09/07 05:02:57;;;;;;;13.80;11.40;;;;;;;;;;5060522;28;20021;-83
2021/09/07 05:05:23;;;;;;;14.93;11.65;;;;;;;;;;5060763;28;20036;-83
2021/09/07 05:07:49;;;;;;;13.65;10.90;;;;;;;;;;5077474;28;20025;-83
2021/09/07 05:10:15;;;;;;;14.88;10.18;;;;;;;;;;5088469;28;20040;-81
2021/09/07 05:12:41;;;;;;;10.98;9.35;;;;;;;;;;5074746;28;20025;-82
2021/09/07 05:15:08;;;;;;;15.15;9.65;;;;;;;;;;5078356;28;20092;-83
2021/09/07 05:17:34;;;;;;;15.27;9.07;;;;;;;;;;5072357;28;20060;-84
2021/09/07 05:20:01;;;;;;;15.20;9.10;;;;;;;;;;5056717;28;20021;-82
2021/09/07 05:22:27;;;;;;;14.85;9.40;;;;;;;;;;5077854;28;20020;-82
2021/09/07 05:24:53;;;;;;;11.45;9.57;;;;;;;;;;5067287;28;20060;-82
2021/09/07 05:27:19;;;;;;;13.48;9.60;;;;;;;;;;5089193;28;20043;-82
2021/09/07 05:29:45;;;;;;;12.75;8.95;;;;;;;;;;5089264;28;20029;-82
2021/09/07 05:32:11;;;;;;;10.32;8.70;;;;;;;;;;5069704;28;20078;-82
2021/09/07 05:34:37;;;;;;;10.18;8.27;;;;;;;;;;5085491;28;20020;-82
2021/09/07 05:37:04;;;;;;;12.45;8.85;;;;;;;;;;5077911;28;20067;-83
2021/09/07 05:39:30;;;;;;;13.25;8.73;;;;;;;;;;5076880;28;20025;-82
2021/09/07 05:41:56;;;;;;;11.88;8.75;;;;;;;;;;5060777;28;20028;-82
2021/09/07 05:44:22;;;;;;;15.00;8.55;;;;;;;;;;5077254;28;20342;-82
2021/09/07 05:46:49;;;;;;;12.25;7.82;;;;;;;;;;5075765;28;20028;-82
2021/09/07 05:49:15;;;;;;;11.45;7.85;;;;;;;;;;5081048;28;20396;-81
2021/09/07 05:51:41;;;;;;;10.05;8.02;;;;;;;;;;5067239;28;20045;-81
2021/09/07 05:54:08;;;;;;;11.57;7.78;;;;;;;;;;5059955;28;20044;-81
2021/09/07 05:56:34;;;;;;;8.65;7.50;;;;;;;;;;5090598;28;20066;-80
2021/09/07 05:59:00;;;;;;;10.55;7.35;;;;;;;;;;5089453;28;20099;-81
2021/09/07 06:01:26;;;;;;;10.43;7.90;;;;;;;;;;5082455;28;20025;-82
2021/09/07 06:03:52;;;;;;;10.90;8.15;;;;;;;;;;5067867;28;20032;-81
2021/09/07 06:06:18;;;;;;;12.70;7.68;;;;;;;;;;5063513;28;20123;-82
2021/09/07 06:08:44;;;;;;;10.38;7.35;;;;;;;;;;5078944;28;20029;-82
2021/09/07 06:11:10;;;;;;;9.82;7.40;;;;;;;;;;5075327;28;20043;-81
2021/09/07 06:13:36;;;;;;;9.80;7.40;;;;;;;;;;5060793;28;20032;-80
2021/09/07 06:16:02;;;;;;;13.38;8.27;;;;;;;;;;5080685;28;20032;-81
2021/09/07 06:18:29;;;;;;;12.00;9.02;;;;;;;;;;5084260;28;20024;-82
2021/09/07 06:20:55;;;;;;;10.02;7.70;;;;;;;;;;5046889;28;20025;-82
2021/09/07 06:23:21;;;;;;;14.10;7.90;;;;;;;;;;5063935;28;20028;-80
2021/09/07 06:25:47;;;;;;;13.23;7.70;;;;;;;;;;5061556;28;20029;-82
2021/09/07 06:28:13;;;;;;;11.75;8.15;;;;;;;;;;5076321;28;20028;-77
2021/09/07 06:30:39;;;;;;;10.40;8.05;;;;;;;;;;5084841;28;20686;-79
2021/09/07 06:33:05;;;;;;;13.10;7.93;;;;;;;;;;5081079;28;20029;-81
2021/09/07 06:35:31;;;;;;;11.00;8.45;;;;;;;;;;5078526;28;20051;-81
2021/09/07 06:37:57;;;;;;;10.77;8.18;;;;;;;;;;5082225;28;20699;-81
2021/09/07 06:40:24;;;;;;;13.38;7.38;;;;;;;;;;5081428;28;20028;-81
2021/09/07 06:42:50;;;;;;;9.52;7.65;;;;;;;;;;5081404;28;20025;-80
2021/09/07 06:45:17;;;;;;;12.85;7.93;;;;;;;;;;5081981;28;20027;-80
2021/09/07 06:47:43;;;;;;;13.90;8.38;;;;;;;;;;5082724;28;20527;-80
2021/09/07 06:50:11;;;;;;;13.38;7.35;;;;;;;;;;5082726;28;20041;-81
2021/09/07 06:52:37;;;;;;;11.90;7.82;;;;;;;;;;5082000;28;20028;-81
2021/09/07 06:55:03;;;;;;;12.20;8.40;;;;;;;;;;5060739;28;20028;-82
2021/09/07 06:57:29;;;;;;;13.27;7.70;;;;;;;;;;5082048;28;20523;-78
2021/09/07 06:59:56;;;;;;;12.30;8.18;;;;;;;;;;5087549;28;20056;-81
2021/09/07 07:02:22;;;;;;;13.93;8.10;;;;;;;;;;5090222;28;20096;-80
2021/09/07 07:04:49;;;;;;;12.75;8.35;;;;;;;;;;5086581;28;20060;-79
2021/09/07 07:07:15;;;;;;;14.93;7.75;;;;;;;;;;5088711;28;20025;-80
2021/09/07 07:09:41;;;;;;;11.98;8.13;;;;;;;;;;5085497;28;20054;-80
2021/09/07 07:12:07;;;;;;;13.55;8.25;;;;;;;;;;5078670;28;20017;-81
2021/09/07 07:14:33;;;;;;;12.85;7.72;;;;;;;;;;5072942;28;20035;-81
2021/09/07 07:16:59;;;;;;;10.32;7.07;;;;;;;;;;5071466;28;20158;-80
2021/09/07 07:19:25;;;;;;;13.02;7.93;;;;;;;;;;5071079;28;20092;-81
2021/09/07 07:21:51;;;;;;;15.95;7.75;;;;;;;;;;5072067;28;20413;-81
2021/09/07 07:24:18;;;;;;;11.05;7.82;;;;;;;;;;5050025;28;20036;-82
2021/09/07 07:26:44;;;;;;;17.50;8.27;;;;;;;;;;5068489;28;20032;-80
2021/09/07 07:29:12;;;;;;;11.95;7.88;;;;;;;;;;5070464;28;20460;-82
2021/09/07 07:31:38;;;;;;;13.98;8.55;;;;;;;;;;5072456;28;20806;-82
2021/09/07 07:34:04;;;;;;;15.20;8.20;;;;;;;;;;5050596;28;20120;-80
2021/09/07 07:36:31;;;;;;;14.18;8.05;;;;;;;;;;5069082;28;20063;-81
2021/09/07 07:38:57;;;;;;;13.45;8.40;;;;;;;;;;5065920;28;20047;-83
2021/09/07 07:41:23;;;;;;;13.98;8.50;;;;;;;;;;5070605;28;20485;-80
2021/09/07 07:43:49;;;;;;;18.52;8.90;;;;;;;;;;5072700;28;20059;-81
2021/09/07 07:46:15;;;;;;;11.93;8.60;;;;;;;;;;5063689;28;20120;-81
2021/09/07 07:48:41;;;;;;;13.55;8.30;;;;;;;;;;5054701;28;20021;-81
2021/09/07 07:51:11;;;;;;;14.13;8.02;;;;;;;;;;5052327;28;20025;-81
2021/09/07 07:53:38;;;;;;;10.40;7.80;;;;;;;;;;5057718;28;20012;-82
2021/09/07 07:56:04;;;;;;;13.13;9.00;;;;;;;;;;5071350;28;20036;-79
2021/09/07 07:58:31;;;;;;;15.75;7.75;;;;;;;;;;5069314;28;20029;-81
2021/09/07 08:00:57;;;;;;;13.65;7.97;;;;;;;;;;5062710;28;20537;-81
2021/09/07 08:03:23;;;;;;;9.13;7.75;;;;;;;;;;5056632;28;20029;-81
2021/09/07 08:05:49;;;;;;;10.00;7.47;;;;;;;;;;5075106;28;20072;-81
2021/09/07 08:08:16;;;;;;;11.75;7.50;;;;;;;;;;5074619;28;20027;-81
2021/09/07 08:10:42;;;;;;;9.82;7.32;;;;;;;;;;5073003;28;20021;-81
2021/09/07 08:13:08;;;;;;;13.13;8.00;;;;;;;;;;5064110;28;20056;-81
2021/09/07 08:15:34;;;;;;;11.82;7.00;;;;;;;;;;5074946;28;20024;-82
2021/09/07 08:18:01;;;;;;;9.13;6.63;;;;;;;;;;5075328;28;20036;-83
2021/09/07 08:20:30;;;;;;;12.27;7.53;;;;;;;;;;5077319;28;20029;-82
2021/09/07 08:22:56;;;;;;;19.77;7.68;;;;;;;;;;5077002;28;20028;-81
2021/09/07 08:25:22;;;;;;;14.27;7.57;;;;;;;;;;5080264;28;20059;-81
2021/09/07 08:27:48;;;;;;;13.55;7.60;;;;;;;;;;5084381;28;20021;-82
2021/09/07 08:30:15;;;;;;;16.77;7.45;;;;;;;;;;5063563;28;20060;-84
2021/09/07 08:32:42;;;;;;;12.02;8.27;;;17.60;99.90;;;;;;5079203;28;20048;-83
2021/09/07 08:35:10;;;;;;;13.85;8.95;;;22.10;99.90;;;;;;5081199;28;20485;-82
2021/09/07 08:37:36;;;;;;;14.98;8.77;;;22.00;99.90;;;;;;5080971;28;20579;-83
2021/09/07 08:40:03;;;;;;;10.35;8.63;;;22.10;99.90;;;;;;5085049;28;20039;-82
2021/09/07 08:42:29;;;;;;;12.93;8.00;;;21.90;99.90;;;;;;5062152;28;20028;-82
2021/09/07 08:44:55;;;;;;;11.70;7.13;;;21.90;99.90;;;;;;5062102;28;20051;-83
2021/09/07 08:47:21;;;;;;;12.07;8.18;;;22.00;99.90;;;;;;5062504;28;20028;-82
2021/09/07 08:49:50;;;;;;;10.20;7.22;;;21.90;99.90;;;;;;5078374;28;20036;-82
2021/09/07 08:52:18;;;;;;;14.02;7.80;;;22.00;99.90;;;;;;5080677;28;20020;-83
2021/09/07 08:54:45;;;;;;;12.10;7.35;;;21.90;99.90;;;;;;5080221;28;20016;-83
2021/09/07 08:57:11;;;;;;;14.60;7.32;;;22.30;99.90;;;;;;5078485;28;20029;-83
2021/09/07 08:59:37;;;;;;;13.48;6.97;;;22.50;99.90;;;;;;5079860;28;20032;-82
2021/09/07 09:02:17;;;;;;;10.93;7.10;;;22.70;99.90;;;;;;5079315;28;20098;-83
2021/09/07 09:04:50;;;;;;;9.48;6.47;;;22.80;99.90;;;;;;5042740;28;20106;-83
2021/09/07 09:07:24;;;;;;;15.70;7.50;;;22.80;99.90;;;;;;5046359;28;20043;-83
2021/09/07 09:09:51;;;;;;;12.98;7.30;;;23.00;99.90;;;;;;5062669;28;20056;-82
2021/09/07 09:12:36;;;;;;;9.00;6.75;;;22.80;99.90;;;;;;5042312;28;20047;-82
2021/09/07 09:15:31;;;;;;;8.57;6.50;;;23.00;99.90;;;;;;5059961;28;20029;-82
2021/09/07 09:18:04;;;;;;;13.93;7.15;;;23.20;99.90;;;;;;5042565;28;20039;-83
2021/09/07 09:20:30;;;;;;;11.80;7.32;;;23.10;99.90;;;;;;5065691;28;20052;-82
2021/09/07 09:22:57;;;;;;;15.35;7.47;;;23.10;99.90;;;;;;5071288;28;20033;-82
2021/09/07 09:25:28;;;;;;;14.98;7.10;;;23.40;99.90;;;;;;5053836;28;20033;-82
2021/09/07 09:27:57;;;;;;;13.20;7.57;;;;;;;;;;5063929;28;20029;-82
2021/09/07 09:30:27;;;;;;;14.25;8.10;;;;;;;;;;5072779;28;20397;-82
2021/09/07 09:32:54;;;;;;;11.40;7.07;;;;;;;;;;5065974;28;20067;-82
2021/09/07 09:35:20;;;;;;;8.85;6.68;;;;;;;;;;5074443;28;20029;-82
2021/09/07 09:37:56;;;;;;;16.85;7.07;;;;;;;;;;5074162;28;20059;-82
2021/09/07 09:40:23;;;;;;;11.15;6.88;;;;;;;;;;5056272;28;21692;-82
2021/09/07 09:42:49;;;;;;;10.02;7.20;;;;;;;;;;5070902;28;20025;-82
2021/09/07 09:45:15;;;;;;;12.32;7.43;;;;;;;;;;5060232;28;20037;-82
2021/09/07 09:47:42;;;;;;;15.38;6.95;;;;;;;;;;5071010;28;20048;-82
2021/09/07 09:50:09;;;;;;;14.30;7.40;;;;;;;;;;5065710;28;20040;-82
2021/09/07 09:52:40;;;;;;;12.48;7.45;;;;;;;;;;5065665;28;20025;-82
2021/09/07 09:55:07;;;;;;;12.40;6.90;;;;;;;;;;5073322;28;20044;-82
2021/09/07 09:57:37;;;;;;;16.08;6.93;;;;;;;;;;5072107;28;20021;-82
2021/09/07 10:00:04;;;;;;;12.73;6.40;;;;;;;;;;5053441;28;20029;-82
2021/09/07 10:02:31;;;;;;;10.27;7.10;;;;;;;;;;5053481;28;20064;-82
2021/09/07 10:05:00;;;;;;;10.43;7.10;;;23.40;99.90;;;;;;5064146;28;20017;-78
2021/09/07 10:07:27;;;;;;;10.98;6.28;;;;;;;;;;5055887;28;20029;-78
2021/09/07 10:09:54;;;;;;;13.85;7.20;;;;;;;;;;5069023;28;20028;-77
2021/09/07 10:12:27;;;;;;;11.20;6.35;;;;;;;;;;5073237;28;20469;-77
2021/09/07 10:15:04;;;;;;;9.13;6.40;;;;;;;;;;5072705;28;20021;-78
2021/09/07 10:17:43;;;;;;;10.85;6.13;;;;;;;;;;5072665;28;20043;-77
2021/09/07 10:23:25;;;;;;;10.00;6.68;;;;;;;;;;5072592;28;20441;-77
2021/09/07 10:25:51;;;;;;;;;;;;;;;;;;5046041;28;20040;-77
2021/09/07 10:28:46;;;;;;;11.38;6.22;;;;;;;;;;5073567;28;19905;-78
2021/09/07 10:31:14;;;;;;;10.93;6.75;;;;;;;;;;5064371;28;20051;-77
2021/09/07 10:33:41;;;;;;;8.35;6.53;;;;;;;;;;5055865;28;20119;-78
2021/09/07 10:36:09;;;;;;;9.43;6.65;;;;;;;;;;5063315;28;20106;-78
2021/09/07 10:38:37;;;;;;;12.10;6.75;;;25.70;99.90;;;;;;5071505;28;20116;-77
2021/09/07 10:41:02;;;;;;;13.10;6.65;;;26.70;98.50;;;;;;5061236;28;20021;-77
2021/09/07 10:43:51;;;;;;;11.35;5.72;;;26.70;98.00;;;;;;5057200;28;20024;-77
2021/09/07 10:46:37;;;;;;;10.50;6.50;;;27.00;98.00;;;;;;5055663;28;20016;-77
2021/09/07 10:49:25;;;;;;;8.77;6.60;;;27.20;96.40;;;;;;5061991;28;20121;-77
2021/09/07 10:52:15;;;;;;;10.82;6.70;;;27.10;95.30;;;;;;5058903;28;20013;-77
2021/09/07 10:55:09;;;;;;;9.70;6.57;;;27.40;94.90;;;;;;5068172;28;20706;-77
2021/09/07 10:57:35;;;;;;;11.00;6.10;;;27.60;94.80;;;;;;5057037;28;20032;-77
2021/09/07 11:00:13;;;;;;;10.13;6.47;;;27.70;94.80;;;;;;5058451;28;20071;-77
2021/09/07 11:02:42;;;;;;;8.60;6.28;;;;;;;;;;5060079;28;20025;-78
2021/09/07 11:05:12;;;;;;;11.27;6.20;;;;;;;;;;5060257;28;20029;-77
2021/09/07 11:07:40;;;;;;;10.98;6.80;;;;;;;;;;5052828;28;20020;-77
2021/09/07 11:10:06;;;;;;;11.10;6.35;;;;;;;;;;5067833;28;20025;-77
2021/09/07 11:12:33;;;;;;;9.95;5.93;;;;;;;;;;5062528;28;20378;-78
2021/09/07 11:15:05;;;;;;;9.10;6.70;;;;;;;;;;5060033;28;20386;-78
2021/09/07 11:17:32;;;;;;;8.88;5.90;;;;;;;;;;5072199;22;20044;-79
2021/09/07 11:20:06;;;;;;;7.63;5.88;;;;;;;;;;5057215;28;20413;-79
2021/09/07 11:22:33;;;;;;;9.43;6.22;;;;;;;;;;5055026;28;20047;-82
2021/09/07 11:25:04;;;;;;;9.20;6.05;;;;;;;;;;5054702;28;20033;-80
2021/09/07 11:27:50;;;;;;;9.18;6.30;;;;;;;;;;5046940;28;20070;-80
2021/09/07 11:30:22;;;;;;;10.85;5.97;;;;;;;;;;5043859;28;20052;-80
2021/09/07 11:32:48;;;;;;;9.80;5.80;;;27.70;94.10;;;;;;5028133;28;20024;-81
2021/09/07 11:35:14;;;;;;;6.88;5.55;;;29.70;76.80;;;;;;5047505;28;20021;-81
2021/09/07 11:37:39;;;;;;;9.38;5.60;;;30.00;72.40;;;;;;5046580;28;20079;-81
2021/09/07 11:40:12;;;;;;;9.10;5.30;;;;;;;;;;5035687;28;20025;-81
2021/09/07 11:42:47;;;;;;;8.73;5.70;;;;;;;;;;5045300;28;20025;-81
2021/09/07 11:45:20;;;;;;;8.20;5.50;;;;;;;;;;5048964;28;20433;-81
2021/09/07 11:47:46;;;;;;;8.05;5.82;;;;;;;;;;5048566;28;20028;-81
2021/09/07 11:50:16;;;;;;;6.18;5.05;;;;;;;;;;5047809;28;20025;-81
2021/09/07 11:52:44;;;;;;;7.25;5.38;;;;;;;;;;5030908;28;20032;-82
2021/09/07 11:55:31;;;;;;;7.80;5.30;;;;;;;;;;5045612;28;20393;-81
2021/09/07 11:57:57;;;;;;;8.07;5.22;;;;;;;;;;5015627;28;20037;-81
2021/09/07 12:00:23;;;;;;;11.75;6.07;;;;;;;;;;5029885;28;20114;-81
2021/09/07 12:03:09;;;;;;;9.48;5.60;;;;;;;;;;5029918;28;20026;-81
2021/09/07 12:06:11;;;;;;;8.82;4.95;;;;;;;;;;5048720;28;20025;-81
2021/09/07 12:08:37;;;;;;;;;;;;;;;;;;4991608;28;20076;-81
2021/09/07 12:11:03;;;;;;;6.55;4.97;;;;;;;;;;5035531;28;20355;-83
2021/09/07 12:13:29;;;;;;;7.18;5.07;;;;;;;;;;5028816;28;20036;-86
2021/09/07 12:15:55;;;;;;;6.03;5.18;;;;;;;;;;5048641;28;20025;-83
2021/09/07 12:18:38;;;;;;;6.38;4.70;;;;;;;;;;5036731;28;20099;-85
2021/09/07 12:21:09;;;;;;;6.85;4.97;;;;;;;;;;5025017;28;20029;-87
2021/09/07 12:23:35;;;;;;;8.68;5.38;;;;;;;;;;5032868;28;20071;-86
2021/09/07 12:26:02;;;;;;;8.48;5.47;;;;;;;;;;5034766;28;20034;-86
2021/09/07 12:28:29;;;;;;;9.57;5.07;;;;;;;;;;5028041;28;20021;-86
2021/09/07 12:31:10;;;;;;;7.75;5.90;;;;;;;;;;5037210;28;20025;-86
2021/09/07 12:33:44;;;;;;;6.25;4.90;;;;;;;;;;5046603;28;20040;-85
2021/09/07 12:36:10;;;;;;;11.55;6.00;;;;;;;;;;5032954;28;20039;-85
2021/09/07 12:38:37;;;;;;;7.53;4.95;;;;;;;;;;5042823;28;20025;-86
2021/09/07 12:41:15;;;;;;;8.20;5.05;;;;;;;;;;5033703;28;20032;-86
2021/09/07 12:43:44;;;;;;;6.95;4.47;;;;;;;;;;5023350;28;20065;-86
2021/09/07 12:46:12;;;;;;;8.35;5.07;;;;;;;;;;5030667;28;20024;-86
2021/09/07 12:48:40;;;;;;;6.68;5.00;;;;;;;;;;5037129;28;20068;-84
2021/09/07 12:51:06;;;;;;;8.63;5.28;;;;;;;;;;5037325;28;20000;-85
2021/09/07 12:53:39;;;;;;;11.45;5.13;;;;;;;;;;5041484;28;20021;-85
2021/09/07 12:56:06;;;;;;;5.57;4.72;;;;;;;;;;5045028;28;20107;-85
2021/09/07 12:58:33;;;;;;;5.15;4.15;;;;;;;;;;5012395;28;20104;-86
2021/09/07 13:01:00;;;;;;;8.60;4.70;;;;;;;;;;5043888;28;20037;-85
2021/09/07 13:03:26;;;;;;;5.55;4.63;;;;;;;;;;5041573;28;20101;-85
2021/09/07 13:05:53;;;;;;;7.10;5.32;;;;;;;;;;5043000;28;20075;-85
2021/09/07 13:08:19;;;;;;;10.65;5.32;;;;;;;;;;5040878;28;20025;-86
2021/09/07 13:10:45;;;;;;;5.38;4.47;;;;;;;;;;5022811;28;20124;-86
2021/09/07 13:13:11;;;;;;;8.13;4.82;;;;;;;;;;5042783;28;20049;-85
2021/09/07 13:15:37;;;;;;;7.10;4.70;;;;;;;;;;5026572;28;20087;-85
2021/09/07 13:18:03;;;;;;;5.60;4.45;;;;;;;;;;5037928;28;20064;-85
2021/09/07 13:20:29;;;;;;;10.35;4.78;;;;;;;;;;5046843;28;20029;-86
2021/09/07 13:22:55;;;;;;;5.30;4.63;;;30.20;72.00;;;;;;5004064;28;20093;-86
2021/09/07 13:25:20;;;;;;;5.68;4.40;;;35.60;49.30;;;;;;5013584;28;20086;-86
2021/09/07 13:27:46;;;;;;;6.35;4.97;;;35.40;49.00;;;;;;5041072;28;20052;-86
2021/09/07 13:30:12;;;;;;;7.15;4.53;;;35.20;48.70;;;;;;5014910;28;20513;-86
2021/09/07 13:32:38;;;;;;;5.47;4.78;;;35.50;47.90;;;;;;4983171;28;20060;-86
2021/09/07 13:35:04;;;;;;;6.72;5.03;;;;;;;;;;5016665;28;20037;-86
2021/09/07 13:37:30;;;;;;;5.65;4.57;;;;;;;;;;5016449;28;20032;-87
2021/09/07 13:39:56;;;;;;;7.18;4.88;;;;;;;;;;5018923;28;20449;-86
2021/09/07 13:42:22;;;;;;;6.80;5.07;;;;;;;;;;5016606;28;20025;-87
2021/09/07 13:44:48;;;;;;;7.22;4.55;;;;;;;;;;5017799;28;20025;-87
2021/09/07 13:47:14;;;;;;;6.20;4.97;;;;;;;;;;5016725;28;20735;-86
2021/09/07 13:49:40;;;;;;;7.65;4.85;;;;;;;;;;5033756;28;20025;-86
2021/09/07 13:52:07;;;;;;;5.70;4.85;;;;;;;;;;5038988;28;20049;-86
2021/09/07 13:54:33;;;;;;;7.35;4.53;;;;;;;;;;5027396;28;20726;-86
2021/09/07 13:57:00;;;;;;;5.05;4.55;;;;;;;;;;5054089;28;20440;-86
2021/09/07 13:59:26;;;;;;;7.90;4.32;;;;;;;;;;5054245;28;20033;-86
2021/09/07 14:01:52;;;;;;;8.73;4.57;;;;;;;;;;5056156;28;20146;-85
2021/09/07 14:04:18;;;;;;;5.63;4.57;;;;;;;;;;5020712;28;20071;-85
2021/09/07 14:06:44;;;;;;;10.02;4.93;;;;;;;;;;5037046;28;20505;-86
2021/09/07 14:09:10;;;;;;;6.25;4.32;;;;;;;;;;5052903;28;20029;-86
2021/09/07 14:11:38;;;;;;;6.57;5.00;;;;;;;;;;5020198;28;20021;-85
2021/09/07 14:14:04;;;;;;;7.40;4.50;;;;;;;;;;5037956;28;20082;-87
2021/09/07 14:16:30;;;;;;;7.30;4.38;;;;;;;;;;5056747;28;20025;-87
2021/09/07 14:18:57;;;;;;;5.07;4.57;;;;;;;;;;5035449;28;20036;-87
2021/09/07 14:21:23;;;;;;;5.03;4.47;;;;;;;;;;5055186;28;20091;-86
2021/09/07 14:23:49;;;;;;;6.43;4.55;;;;;;;;;;5053626;28;20025;-86